BLACK BUTTE (BLB)

Elevation: 426' · STONY CR basin · Operator: US Army Corps of Engineers

Provisional data, subject to change.
Query executed Monday at 6:35:16   clock

Select a sensor type for a plot of data.
Note: Reservoir Flows are daily averages.

Earlier

Date RES ELE    STORAGE    RES CHG    TOC STO    ABV TOC    OUTFLOW    INFLOW    PPT INC    TEMP MN    TEMP MX    EVP PAN   
 FEET   AF   AF   AF   AF   CFS   CFS   INCHES   DEG F   DEG F   INCHES  
08/02/2014 450.63 55306 -635 136200 -80894 297 6 0.00 19 38 0.32
08/03/2014 450.38 54651 -655 136200 -81549 305 1 0.00 18 33 0.29
08/04/2014 450.12 53975 -676 136200 -82225 316 -6 0.00 20 32 0.21
08/05/2014 449.91 53434 -541 136200 -82766 286 18 0.06 20 25 0.06
08/06/2014 449.72 52947 -487 136200 -83253 225 -5 0.02 21 33 0.18
08/07/2014 449.59 52615 -332 136200 -83585 150 7 0.06 21 37 0.28
08/08/2014 449.47 52311 -304 136200 -83889 133 4 0.00 20 36 0.28
08/09/2014 449.35 52007 -304 136200 -84193 136 8 0.00 20 36 0.30
08/10/2014 449.27 51806 -201 136200 -84394 80 2 0.00 16 35 0.28
08/11/2014 449.23 51705 -101 136200 -84495 23 -3 0.00 21 36 0.30
08/12/2014 449.20 51630 -75 136200 -84570 10 -3 0.00 18 32 0.29
08/13/2014 449.18 51579 -51 136200 -84621 10 6 0.00 15 31 0.26
08/14/2014 449.06 51279 -300 136200 -84921 167 38 0.00 18 33 0.27
08/15/2014 448.83 50706 -573 136200 -85494 272 7 0.00 18 36 0.28
08/16/2014 448.58 50088 -618 136200 -86112 289 2 0.00 18 37 0.29
08/17/2014 448.32 49451 -637 136200 -86749 311 14 0.00 17 37 0.28
08/18/2014 448.06 48818 -633 136200 -87382 304 9 0.00 18 36 0.28
08/19/2014 447.81 48214 -604 136200 -87986 290 9 0.00 15 34 0.29
08/20/2014 447.56 47615 -599 136200 -88585 260 -21 0.00 16 30 0.25
08/21/2014 447.37 47163 -452 136200 -89037 221 14 0.00 18 33 0.26
08/22/2014 447.24 46855 -308 136200 -89345 149 14 0.00 19 32 0.25
08/23/2014 447.19 46737 -118 136200 -89463 54 18 0.00 19 37 0.28
08/24/2014 447.11 46549 -188 136200 -89651 8 -64 0.00 18 34 0.28
08/25/2014 447.09 46502 -47 136200 -89698 2 -3 0.00 15 31 0.23
08/26/2014 447.07 46455 -47 136200 -89745 1 -2 0.00 16 36 0.26
08/27/2014 447.05 46408 -47 136200 -89792 15 12 0.00 18 36 0.25
08/28/2014 446.92 46103 -- 136200 -- 196 64 0.00 20 37 0.26
08/29/2014 446.66 45497 -606 136200 -90703 294 6 0.00 21 33 0.22
08/30/2014 446.41 44920 -577 136200 -91280 -- -- -- -- -- --
08/31/2014 446.16 44347 -573 136200 -91853 -- -- -- -- -- --
09/01/2014 -- -- -- -- -- -- -- -- -- -- --

Later | Latest

Warning! This data is preliminary and subject to revision.

Download Data Now Download Data Now | Show BLB Map | Plot BLB Data | 1 Month BLB Data | Real-Time BLB Data | BLB Info